createdAt,value
2019-06-27T00:00:16.426Z,1017.02
2019-06-27T00:00:57.028Z,1017
2019-06-27T00:01:37.574Z,1017.01
2019-06-27T00:02:18.109Z,1017.09
2019-06-27T00:02:58.763Z,1017.05
2019-06-27T00:03:39.346Z,1017.01
2019-06-27T00:04:19.907Z,1017.04
2019-06-27T00:05:00.480Z,1017.03
2019-06-27T00:05:41.036Z,1017.04
2019-06-27T00:06:21.602Z,1017.1
2019-06-27T00:07:02.190Z,1017.06
2019-06-27T00:07:42.733Z,1017.07
2019-06-27T00:08:23.313Z,1017.09
2019-06-27T00:09:03.886Z,1017.08
2019-06-27T00:09:44.463Z,1017.12
2019-06-27T00:10:25.028Z,1017.1
2019-06-27T00:11:05.592Z,1017.16
2019-06-27T00:11:46.189Z,1017.1
2019-06-27T00:12:26.754Z,1017.15
2019-06-27T00:13:07.308Z,1017.17
2019-06-27T00:13:47.889Z,1017.16
2019-06-27T00:14:28.498Z,1017.2
2019-06-27T00:15:09.081Z,1017.13
2019-06-27T00:15:49.645Z,1017.17
2019-06-27T00:16:30.224Z,1017.2
2019-06-27T00:17:10.795Z,1017.19
2019-06-27T00:17:51.350Z,1017.2
2019-06-27T00:18:31.998Z,1017.16
2019-06-27T00:19:12.547Z,1017.17
2019-06-27T00:19:53.124Z,1017.19
2019-06-27T00:20:33.679Z,1017.15
2019-06-27T00:21:14.267Z,1017.2
2019-06-27T00:21:54.840Z,1017.21
2019-06-27T00:22:35.405Z,1017.19
2019-06-27T00:23:15.964Z,1017.23
2019-06-27T00:23:56.521Z,1017.26
2019-06-27T00:24:37.075Z,1017.24
2019-06-27T00:25:17.651Z,1017.27
2019-06-27T00:25:58.213Z,1017.24
2019-06-27T00:26:38.778Z,1017.25
2019-06-27T00:27:19.343Z,1017.32
2019-06-27T00:27:59.903Z,1017.31
2019-06-27T00:28:40.463Z,1017.26
2019-06-27T00:29:21.033Z,1017.29
2019-06-27T00:30:01.938Z,1017.3
2019-06-27T00:30:42.525Z,1017.31
2019-06-27T00:31:23.083Z,1017.35
2019-06-27T00:32:03.648Z,1017.32
2019-06-27T00:32:44.237Z,1017.25
2019-06-27T00:33:24.786Z,1017.29
2019-06-27T00:34:05.340Z,1017.26
2019-06-27T00:34:45.899Z,1017.29
2019-06-27T00:35:26.495Z,1017.33
2019-06-27T00:36:07.063Z,1017.34
2019-06-27T00:36:47.615Z,1017.38
2019-06-27T00:37:28.180Z,1017.35
2019-06-27T00:38:08.750Z,1017.38
2019-06-27T00:38:49.346Z,1017.38
2019-06-27T00:39:29.954Z,1017.38
2019-06-27T00:40:10.503Z,1017.38
2019-06-27T00:40:51.081Z,1017.39
2019-06-27T00:41:31.647Z,1017.4
2019-06-27T00:42:12.234Z,1017.41
2019-06-27T00:42:52.830Z,1017.35
2019-06-27T00:43:33.407Z,1017.38
2019-06-27T00:44:13.972Z,1017.49
2019-06-27T00:44:54.553Z,1017.48
2019-06-27T00:45:35.102Z,1017.45
2019-06-27T00:46:15.670Z,1017.47
2019-06-27T00:46:56.249Z,1017.44
2019-06-27T00:47:36.834Z,1017.43
2019-06-27T00:48:17.404Z,1017.46
2019-06-27T00:48:58.009Z,1017.5
2019-06-27T00:49:38.553Z,1017.41
2019-06-27T00:50:19.125Z,1017.46
2019-06-27T00:50:59.743Z,1017.5
2019-06-27T00:51:40.309Z,1017.47
2019-06-27T00:52:20.944Z,1017.47
2019-06-27T00:53:01.440Z,1017.43
2019-06-27T00:53:42.009Z,1017.46
2019-06-27T00:54:22.549Z,1017.41
2019-06-27T00:55:03.107Z,1017.43
2019-06-27T00:55:43.701Z,1017.46
2019-06-27T00:56:24.292Z,1017.43
2019-06-27T00:57:13.785Z,1017.47
2019-06-27T00:57:45.439Z,1017.46
2019-06-27T00:58:26.014Z,1017.45
2019-06-27T00:59:06.597Z,1017.47
2019-06-27T00:59:47.192Z,1017.54
2019-06-27T01:00:27.758Z,1017.49
2019-06-27T01:01:08.332Z,1017.47
2019-06-27T01:01:48.892Z,1017.53
2019-06-27T01:02:29.450Z,1017.51
2019-06-27T01:03:10.061Z,1017.51
2019-06-27T01:03:50.648Z,1017.53
2019-06-27T01:04:31.190Z,1017.65
2019-06-27T01:05:11.749Z,1017.53
2019-06-27T01:05:52.318Z,1017.56
2019-06-27T01:06:32.885Z,1017.52
2019-06-27T01:07:13.436Z,1017.52
2019-06-27T01:07:53.999Z,1017.59
2019-06-27T01:08:34.563Z,1017.56
2019-06-27T01:09:15.123Z,1017.6
2019-06-27T01:09:55.711Z,1017.6
2019-06-27T01:10:36.272Z,1017.65
2019-06-27T01:11:16.822Z,1017.64
2019-06-27T01:11:57.396Z,1017.63
2019-06-27T01:12:37.981Z,1017.61
2019-06-27T01:13:18.545Z,1017.62
2019-06-27T01:13:59.108Z,1017.66
2019-06-27T01:14:39.717Z,1017.69
2019-06-27T01:15:20.298Z,1017.66
2019-06-27T01:16:00.860Z,1017.69
2019-06-27T01:16:41.448Z,1017.66
2019-06-27T01:17:22.033Z,1017.69
2019-06-27T01:18:02.612Z,1017.67
2019-06-27T01:18:43.169Z,1017.7
2019-06-27T01:19:23.742Z,1017.72
2019-06-27T01:20:04.293Z,1017.63
2019-06-27T01:20:44.866Z,1017.69
2019-06-27T01:21:25.467Z,1017.68
2019-06-27T01:22:06.027Z,1017.69
2019-06-27T01:22:46.585Z,1017.74
2019-06-27T01:23:27.160Z,1017.68
2019-06-27T01:24:07.720Z,1017.73
2019-06-27T01:24:48.300Z,1017.74
2019-06-27T01:25:28.859Z,1017.73
2019-06-27T01:26:09.413Z,1017.77
2019-06-27T01:26:50.003Z,1017.77
2019-06-27T01:27:30.694Z,1017.77
2019-06-27T01:28:11.218Z,1017.73
2019-06-27T01:28:51.790Z,1017.8
2019-06-27T01:29:32.383Z,1017.84
2019-06-27T01:30:12.950Z,1017.79
2019-06-27T01:30:53.523Z,1017.82
2019-06-27T01:31:34.094Z,1017.87
2019-06-27T01:32:14.659Z,1017.83
2019-06-27T01:32:55.218Z,1017.84
2019-06-27T01:33:35.791Z,1017.86
2019-06-27T01:34:16.367Z,1017.87
2019-06-27T01:34:56.924Z,1017.86
2019-06-27T01:35:37.610Z,1017.82
2019-06-27T01:36:18.214Z,1017.84
2019-06-27T01:36:58.826Z,1017.83
2019-06-27T01:37:41.050Z,1017.9
2019-06-27T01:39:33.675Z,1017.9
2019-06-27T01:40:14.251Z,1017.92
2019-06-27T01:40:54.814Z,1017.92
2019-06-27T01:41:35.374Z,1018
2019-06-27T01:42:15.920Z,1017.92
2019-06-27T01:42:56.489Z,1018.03
2019-06-27T01:43:37.064Z,1018
2019-06-27T01:44:17.632Z,1018.03
2019-06-27T01:44:58.197Z,1018.06
2019-06-27T01:45:38.755Z,1017.99
2019-06-27T01:46:19.314Z,1018.01
2019-06-27T01:46:59.867Z,1017.99
2019-06-27T01:47:40.442Z,1018.03
2019-06-27T01:48:21.021Z,1018.01
2019-06-27T01:49:01.585Z,1018.04
2019-06-27T01:49:42.154Z,1018.02
2019-06-27T01:50:22.728Z,1018.02
2019-06-27T01:51:03.326Z,1018.09
2019-06-27T01:51:43.885Z,1018.07
2019-06-27T01:52:24.456Z,1018.09
2019-06-27T01:53:05.025Z,1018.13
2019-06-27T01:53:45.587Z,1018.09
2019-06-27T01:54:26.160Z,1018.12
2019-06-27T01:55:06.705Z,1018.09
2019-06-27T01:55:47.313Z,1018.08
2019-06-27T01:56:27.869Z,1018.11
2019-06-27T01:57:08.469Z,1018.11
2019-06-27T01:57:49.025Z,1018.08
2019-06-27T01:58:29.673Z,1018.07
2019-06-27T01:59:10.225Z,1018.08
2019-06-27T01:59:50.830Z,1017.99
2019-06-27T02:00:31.403Z,1017.99
2019-06-27T02:01:11.996Z,1018.04
2019-06-27T02:01:52.556Z,1018.02
2019-06-27T02:02:33.115Z,1018.05
2019-06-27T02:03:13.689Z,1018.04
2019-06-27T02:03:54.267Z,1018.06
2019-06-27T02:04:34.824Z,1018.05
2019-06-27T02:05:15.383Z,1018.07
2019-06-27T02:05:55.952Z,1018.08
2019-06-27T02:06:36.530Z,1018.1
2019-06-27T02:07:17.106Z,1018.12
2019-06-27T02:07:57.677Z,1018.13
2019-06-27T02:08:38.275Z,1018.12
2019-06-27T02:09:18.841Z,1018.13
2019-06-27T02:09:59.429Z,1018.14
2019-06-27T02:10:40.001Z,1018.11
2019-06-27T02:11:20.573Z,1018.16
2019-06-27T02:12:01.158Z,1018.14
2019-06-27T02:12:41.718Z,1018.09
2019-06-27T02:13:22.303Z,1018.14
2019-06-27T02:14:02.911Z,1018.1
2019-06-27T02:14:43.494Z,1018.09
2019-06-27T02:15:24.087Z,1018.12
2019-06-27T02:16:04.669Z,1018.08
2019-06-27T02:16:45.290Z,1018.12
2019-06-27T02:17:25.821Z,1018.13
2019-06-27T02:18:06.418Z,1018.13
2019-06-27T02:18:47.008Z,1018.09
2019-06-27T02:19:27.624Z,1018.11
2019-06-27T02:20:08.186Z,1018.15
2019-06-27T02:20:48.821Z,1018.12
2019-06-27T02:21:29.352Z,1018.05
2019-06-27T02:22:09.949Z,1018.1
2019-06-27T02:22:50.493Z,1018.11
2019-06-27T02:23:31.071Z,1018.11
2019-06-27T02:24:11.637Z,1018.09
2019-06-27T02:24:52.194Z,1018.11
2019-06-27T02:25:32.765Z,1018.08
2019-06-27T02:26:13.328Z,1018.1
2019-06-27T02:26:53.890Z,1018.17
2019-06-27T02:27:34.465Z,1018.11
2019-06-27T02:28:15.051Z,1018.14
2019-06-27T02:28:55.654Z,1018.17
2019-06-27T02:29:36.232Z,1018.15
2019-06-27T02:30:16.798Z,1018.15
2019-06-27T02:30:57.351Z,1018.05
2019-06-27T02:31:37.932Z,1018.08
2019-06-27T02:32:18.538Z,1018.1
2019-06-27T02:32:59.091Z,1018.11
2019-06-27T02:33:39.639Z,1018.11
2019-06-27T02:34:20.219Z,1018.13
2019-06-27T02:35:00.769Z,1018.11
2019-06-27T02:35:41.352Z,1018.14
2019-06-27T02:36:21.905Z,1018.09
2019-06-27T02:37:02.472Z,1018.12
2019-06-27T02:37:43.031Z,1018.08
2019-06-27T02:38:23.600Z,1018.17
2019-06-27T02:39:04.148Z,1018.12
2019-06-27T02:39:44.712Z,1018.18
2019-06-27T02:40:25.285Z,1018.17
2019-06-27T02:41:05.861Z,1018.16
2019-06-27T02:41:46.415Z,1018.18
2019-06-27T02:42:27.016Z,1018.15
2019-06-27T02:43:07.608Z,1018.18
2019-06-27T02:43:48.183Z,1018.13
2019-06-27T02:44:28.729Z,1018.17
2019-06-27T02:45:09.294Z,1018.18
2019-06-27T02:45:49.859Z,1018.16
2019-06-27T02:46:30.430Z,1018.16
2019-06-27T02:47:10.999Z,1018.18
2019-06-27T02:47:51.583Z,1018.2
2019-06-27T02:48:32.166Z,1018.16
2019-06-27T02:49:12.714Z,1018.17
2019-06-27T02:49:53.272Z,1018.18
2019-06-27T02:50:33.831Z,1018.16
2019-06-27T02:51:14.409Z,1018.21
2019-06-27T02:51:54.951Z,1018.17
2019-06-27T02:52:35.534Z,1018.21
2019-06-27T02:53:16.099Z,1018.22
2019-06-27T02:53:56.673Z,1018.24
2019-06-27T02:54:37.284Z,1018.25
2019-06-27T02:55:17.822Z,1018.25
2019-06-27T02:55:58.394Z,1018.23
2019-06-27T02:56:38.968Z,1018.25
2019-06-27T02:57:19.531Z,1018.21
2019-06-27T02:58:00.114Z,1018.24
2019-06-27T02:58:40.661Z,1018.29
2019-06-27T02:59:21.200Z,1018.29
2019-06-27T03:00:01.797Z,1018.34
2019-06-27T03:00:42.341Z,1018.33
2019-06-27T03:01:22.936Z,1018.32
2019-06-27T03:02:03.485Z,1018.28
2019-06-27T03:02:44.131Z,1018.3
2019-06-27T03:03:24.729Z,1018.32
2019-06-27T03:04:05.325Z,1018.31
2019-06-27T03:04:45.905Z,1018.29
2019-06-27T03:05:26.488Z,1018.31
2019-06-27T03:06:07.059Z,1018.37
2019-06-27T03:06:47.605Z,1018.34
2019-06-27T03:07:28.187Z,1018.33
2019-06-27T03:08:08.762Z,1018.3
2019-06-27T03:08:49.354Z,1018.3
2019-06-27T03:09:29.930Z,1018.3
2019-06-27T03:10:10.523Z,1018.27
2019-06-27T03:10:51.088Z,1018.32
2019-06-27T03:11:31.658Z,1018.33
2019-06-27T03:12:12.231Z,1018.31
2019-06-27T03:12:52.760Z,1018.3
2019-06-27T03:13:33.344Z,1018.27
2019-06-27T03:14:13.933Z,1018.31
2019-06-27T03:14:54.489Z,1018.34
2019-06-27T03:15:35.071Z,1018.27
2019-06-27T03:16:15.634Z,1018.35
2019-06-27T03:16:56.381Z,1018.27
2019-06-27T03:17:36.983Z,1018.31
2019-06-27T03:18:17.532Z,1018.34
2019-06-27T03:18:58.261Z,1018.26
2019-06-27T03:19:38.844Z,1018.27
2019-06-27T03:20:19.437Z,1018.29
2019-06-27T03:21:00.048Z,1018.26
2019-06-27T03:21:40.633Z,1018.23
2019-06-27T03:22:21.222Z,1018.31
2019-06-27T03:23:01.830Z,1018.29
2019-06-27T03:23:42.462Z,1018.27
2019-06-27T03:24:23.031Z,1018.29
2019-06-27T03:25:03.648Z,1018.31
2019-06-27T03:25:44.231Z,1018.34
2019-06-27T03:26:24.805Z,1018.39
2019-06-27T03:27:05.439Z,1018.35
2019-06-27T03:27:46.027Z,1018.32
2019-06-27T03:28:26.583Z,1018.35
2019-06-27T03:29:07.160Z,1018.4
2019-06-27T03:29:48.116Z,1018.38
2019-06-27T03:30:28.685Z,1018.36
2019-06-27T03:31:09.307Z,1018.39
2019-06-27T03:31:49.835Z,1018.38
2019-06-27T03:32:30.413Z,1018.4
2019-06-27T03:33:10.981Z,1018.4
2019-06-27T03:33:51.541Z,1018.42
2019-06-27T03:34:32.124Z,1018.42
2019-06-27T03:35:12.734Z,1018.43
2019-06-27T03:35:53.292Z,1018.39
2019-06-27T03:36:33.853Z,1018.41
2019-06-27T03:37:14.413Z,1018.41
2019-06-27T03:37:55.014Z,1018.44
2019-06-27T03:38:35.607Z,1018.48
2019-06-27T03:39:16.176Z,1018.45
2019-06-27T03:39:56.736Z,1018.47
2019-06-27T03:40:37.313Z,1018.44
2019-06-27T03:41:17.868Z,1018.46
2019-06-27T03:41:58.438Z,1018.46
2019-06-27T03:42:39.034Z,1018.55
2019-06-27T03:43:19.620Z,1018.53
2019-06-27T03:44:00.162Z,1018.53
2019-06-27T03:44:40.729Z,1018.52
2019-06-27T03:45:21.313Z,1018.53
2019-06-27T03:46:01.909Z,1018.49
2019-06-27T03:46:42.482Z,1018.54
2019-06-27T03:47:23.032Z,1018.57
2019-06-27T03:48:03.636Z,1018.56
2019-06-27T03:48:44.204Z,1018.54
2019-06-27T03:49:24.770Z,1018.57
2019-06-27T03:50:05.357Z,1018.58
2019-06-27T03:50:45.954Z,1018.6
2019-06-27T03:51:26.524Z,1018.57
2019-06-27T03:52:07.087Z,1018.6
2019-06-27T03:52:47.691Z,1018.54
2019-06-27T03:53:28.225Z,1018.53
2019-06-27T03:54:08.803Z,1018.58
2019-06-27T03:54:49.361Z,1018.61
2019-06-27T03:55:29.900Z,1018.54
2019-06-27T03:56:10.500Z,1018.6
2019-06-27T03:56:51.072Z,1018.59
2019-06-27T03:57:31.659Z,1018.64
2019-06-27T03:58:12.223Z,1018.68
2019-06-27T03:59:10.551Z,1018.59
2019-06-27T03:59:33.342Z,1018.6
2019-06-27T04:00:13.905Z,1018.59
2019-06-27T04:00:54.457Z,1018.63
2019-06-27T04:01:35.037Z,1018.63
2019-06-27T04:02:15.626Z,1018.64
2019-06-27T04:02:56.216Z,1018.66
2019-06-27T04:03:36.803Z,1018.64
2019-06-27T04:04:17.380Z,1018.71
2019-06-27T04:04:57.949Z,1018.63
2019-06-27T04:05:38.538Z,1018.69
2019-06-27T04:06:19.095Z,1018.69
2019-06-27T04:06:59.669Z,1018.67
2019-06-27T04:07:40.235Z,1018.62
2019-06-27T04:08:20.807Z,1018.65
2019-06-27T04:09:01.379Z,1018.69
2019-06-27T04:09:41.957Z,1018.69
2019-06-27T04:10:22.547Z,1018.69
2019-06-27T04:11:03.125Z,1018.73
2019-06-27T04:11:43.740Z,1018.75
2019-06-27T04:12:24.314Z,1018.7
2019-06-27T04:13:04.885Z,1018.72
2019-06-27T04:13:45.499Z,1018.76
2019-06-27T04:14:26.054Z,1018.8
2019-06-27T04:15:06.641Z,1018.79
2019-06-27T04:15:47.191Z,1018.77
2019-06-27T04:16:27.777Z,1018.8
2019-06-27T04:17:08.384Z,1018.85
2019-06-27T04:17:48.959Z,1018.78
2019-06-27T04:18:29.561Z,1018.79
2019-06-27T04:19:10.139Z,1018.84
2019-06-27T04:19:50.730Z,1018.85
2019-06-27T04:20:31.295Z,1018.87
2019-06-27T04:21:11.864Z,1018.88
2019-06-27T04:21:52.455Z,1018.86
2019-06-27T04:22:33.048Z,1018.89
2019-06-27T04:23:13.634Z,1018.83
2019-06-27T04:23:54.200Z,1018.9
2019-06-27T04:24:34.784Z,1018.88
2019-06-27T04:25:15.370Z,1018.9
2019-06-27T04:25:55.928Z,1018.88
2019-06-27T04:26:36.498Z,1018.9
2019-06-27T04:27:17.055Z,1018.93
2019-06-27T04:28:00.012Z,1018.88
2019-06-27T04:28:38.259Z,1018.83
2019-06-27T04:29:32.477Z,1018.82
2019-06-27T04:29:59.407Z,1018.82
2019-06-27T04:30:39.960Z,1018.86
2019-06-27T04:31:20.530Z,1018.81
2019-06-27T04:32:01.107Z,1018.81
2019-06-27T04:32:41.677Z,1018.85
2019-06-27T04:33:22.289Z,1018.8
2019-06-27T04:34:02.866Z,1018.81
2019-06-27T04:34:43.492Z,1018.84
2019-06-27T04:35:24.067Z,1018.85
2019-06-27T04:36:04.651Z,1018.86
2019-06-27T04:36:45.223Z,1018.88
2019-06-27T04:37:25.812Z,1018.86
2019-06-27T04:38:06.395Z,1018.86
2019-06-27T04:38:46.965Z,1018.83
2019-06-27T04:39:27.539Z,1018.83
2019-06-27T04:40:08.136Z,1018.86
2019-06-27T04:40:48.724Z,1018.87
2019-06-27T04:41:29.326Z,1018.93
2019-06-27T04:42:09.905Z,1018.88
2019-06-27T04:42:50.497Z,1018.9
2019-06-27T04:43:31.093Z,1018.9
2019-06-27T04:44:11.655Z,1018.86
2019-06-27T04:44:52.232Z,1018.87
2019-06-27T04:45:32.822Z,1018.88
2019-06-27T04:46:13.449Z,1018.87
2019-06-27T04:46:54.046Z,1018.87
2019-06-27T04:47:34.602Z,1018.82
2019-06-27T04:48:15.196Z,1018.9
2019-06-27T04:48:55.784Z,1018.86
2019-06-27T04:49:36.343Z,1018.89
2019-06-27T04:50:16.912Z,1018.92
2019-06-27T04:50:57.450Z,1018.89
2019-06-27T04:51:38.047Z,1018.85
2019-06-27T04:52:18.619Z,1018.86
2019-06-27T04:52:59.209Z,1018.87
2019-06-27T04:53:39.808Z,1018.9
2019-06-27T04:54:20.345Z,1018.87
2019-06-27T04:55:03.236Z,1018.83
2019-06-27T04:55:41.483Z,1018.84
2019-06-27T04:56:22.081Z,1018.9
2019-06-27T04:57:02.661Z,1018.94
2019-06-27T04:57:43.220Z,1018.89
2019-06-27T04:58:23.760Z,1018.93
2019-06-27T04:59:04.349Z,1018.91
2019-06-27T04:59:53.000Z,1018.95
2019-06-27T05:00:25.554Z,1018.88
2019-06-27T05:01:06.120Z,1018.9
2019-06-27T05:01:46.703Z,1018.87
2019-06-27T05:02:30.509Z,1018.89
2019-06-27T05:03:07.829Z,1018.87
2019-06-27T05:03:48.402Z,1018.9
2019-06-27T05:04:28.959Z,1018.9
2019-06-27T05:05:09.513Z,1018.92
2019-06-27T05:05:50.074Z,1018.94
2019-06-27T05:06:30.671Z,1018.95
2019-06-27T05:07:11.220Z,1018.97
2019-06-27T05:07:51.784Z,1018.97
2019-06-27T05:08:32.364Z,1019
2019-06-27T05:09:12.938Z,1018.98
2019-06-27T05:09:53.523Z,1019
2019-06-27T05:10:34.078Z,1018.98
2019-06-27T05:11:14.650Z,1018.97
2019-06-27T05:11:55.246Z,1018.96
2019-06-27T05:12:35.808Z,1018.93
2019-06-27T05:13:16.378Z,1018.97
2019-06-27T05:13:56.967Z,1018.97
2019-06-27T05:14:37.523Z,1019
2019-06-27T05:15:18.082Z,1019
2019-06-27T05:15:58.648Z,1018.98
2019-06-27T05:16:39.201Z,1018.93
2019-06-27T05:17:19.771Z,1019
2019-06-27T05:18:00.329Z,1018.99
2019-06-27T05:18:40.887Z,1018.8
2019-06-27T05:19:21.448Z,1018.98
2019-06-27T05:20:03.307Z,1019.1
2019-06-27T05:20:42.580Z,1019
2019-06-27T05:21:23.136Z,1019.01
2019-06-27T05:22:03.704Z,1018.96
2019-06-27T05:22:44.270Z,1019.01
2019-06-27T05:23:24.897Z,1018.97
2019-06-27T05:24:05.447Z,1019.01
2019-06-27T05:24:46.019Z,1019.03
2019-06-27T05:25:29.530Z,1019
2019-06-27T05:26:07.246Z,1019.05
2019-06-27T05:26:47.803Z,1019
2019-06-27T05:27:28.359Z,1019.05
2019-06-27T05:28:08.939Z,1019.09
2019-06-27T05:28:49.501Z,1019.1
2019-06-27T05:29:30.068Z,1019.14
2019-06-27T05:30:10.910Z,1019.1
2019-06-27T05:30:51.843Z,1019.11
2019-06-27T05:31:32.095Z,1019.12
2019-06-27T05:32:12.656Z,1019.12
2019-06-27T05:32:53.219Z,1019.2
2019-06-27T05:33:33.802Z,1019.17
2019-06-27T05:34:14.360Z,1019.28
2019-06-27T05:34:55.057Z,1019.25
2019-06-27T05:35:35.545Z,1019.25
2019-06-27T05:36:16.126Z,1019.28
2019-06-27T05:36:56.669Z,1019.31
2019-06-27T05:37:37.233Z,1019.37
2019-06-27T05:38:17.813Z,1019.21
2019-06-27T05:38:58.387Z,1019.42
2019-06-27T05:39:38.961Z,1019.5
2019-06-27T05:40:19.550Z,1019.19
2019-06-27T05:41:00.187Z,1019.18
2019-06-27T05:41:40.767Z,1019.62
2019-06-27T05:42:21.326Z,1019.72
2019-06-27T05:43:01.920Z,1019.8
2019-06-27T05:43:42.533Z,1019.29
2019-06-27T05:44:23.142Z,1019.44
2019-06-27T05:45:03.724Z,1019.78
2019-06-27T05:45:44.328Z,1019.97
2019-06-27T05:46:24.887Z,1020.16
2019-06-27T05:47:05.449Z,1019.46
2019-06-27T05:47:46.019Z,1019.31
2019-06-27T05:48:26.591Z,1020.39
2019-06-27T05:49:07.179Z,1020.55
2019-06-27T05:49:47.737Z,1020.45
2019-06-27T05:50:28.323Z,1020.41
2019-06-27T05:51:08.895Z,1020.74
2019-06-27T05:51:49.471Z,1020.9
2019-06-27T05:52:30.069Z,1020.74
2019-06-27T05:53:10.656Z,1019.34
2019-06-27T05:53:51.257Z,1021.01
2019-06-27T05:54:31.816Z,1020.99
2019-06-27T05:55:12.390Z,1021.06
2019-06-27T05:55:52.971Z,1021.15
2019-06-27T05:56:33.542Z,1021.11
2019-06-27T05:57:14.132Z,1021.11
2019-06-27T05:57:54.707Z,1021.18
2019-06-27T05:58:35.276Z,1021.08
2019-06-27T05:59:15.840Z,1019.68
2019-06-27T05:59:56.411Z,1020.85
2019-06-27T06:00:37.010Z,1020.82
2019-06-27T06:01:17.578Z,1020.76
2019-06-27T06:01:58.139Z,1020.75
2019-06-27T06:02:38.708Z,1020.64
2019-06-27T06:03:19.390Z,1020.56
2019-06-27T06:04:00.039Z,1020.59
2019-06-27T06:04:40.672Z,1020.65
2019-06-27T06:05:21.271Z,1020.55
2019-06-27T06:06:02.002Z,1020.44
2019-06-27T06:06:42.635Z,1020.35
2019-06-27T06:07:23.217Z,1020.23
2019-06-27T06:08:03.829Z,1020.24
2019-06-27T06:08:44.432Z,1020.24
2019-06-27T06:09:25.048Z,1020.22
2019-06-27T06:10:05.627Z,1020.18
2019-06-27T06:10:46.203Z,1020.14
2019-06-27T06:11:26.770Z,1020.1
2019-06-27T06:12:07.340Z,1020
2019-06-27T06:12:47.928Z,1020.13
2019-06-27T06:13:28.527Z,1020.04
2019-06-27T06:14:09.073Z,1020
2019-06-27T06:14:49.668Z,1020.06
2019-06-27T06:15:30.308Z,1020.01
2019-06-27T06:16:10.916Z,1020.01
2019-06-27T06:16:51.506Z,1020.03
2019-06-27T06:17:32.127Z,1020.04
2019-06-27T06:18:12.794Z,1019.93
2019-06-27T06:18:53.359Z,1019.92
2019-06-27T06:19:33.957Z,1019.97
2019-06-27T06:20:14.533Z,1019.97
2019-06-27T06:20:55.144Z,1020.02
2019-06-27T06:21:35.739Z,1020
2019-06-27T06:22:16.325Z,1020
2019-06-27T06:22:56.939Z,1020.09
2019-06-27T06:23:37.516Z,1020.13
2019-06-27T06:24:18.172Z,1020.17
2019-06-27T06:24:58.672Z,1020.14
2019-06-27T06:25:39.281Z,1020.12
2019-06-27T06:26:19.845Z,1020.08
2019-06-27T06:27:00.411Z,1020.09
2019-06-27T06:29:59.234Z,1020.14
2019-06-27T06:30:44.673Z,1020.13
2019-06-27T06:31:20.447Z,1020.13
2019-06-27T06:32:00.959Z,1020.1
2019-06-27T06:32:41.646Z,1020.2
2019-06-27T06:33:22.209Z,1020.14
2019-06-27T06:34:02.778Z,1020.14
2019-06-27T06:34:43.375Z,1020.04
2019-06-27T06:36:56.725Z,1020
2019-06-27T06:37:37.311Z,1020.02
2019-06-27T06:38:18.009Z,1020.13
2019-06-27T06:38:58.516Z,1020.12
2019-06-27T06:39:39.128Z,1020.16
2019-06-27T06:40:19.725Z,1020.14
2019-06-27T06:41:00.320Z,1020.14
2019-06-27T06:41:40.931Z,1020.14
2019-06-27T06:42:21.587Z,1020.09
2019-06-27T06:43:02.190Z,1019.98
2019-06-27T06:43:42.834Z,1019.96
2019-06-27T06:44:23.385Z,1019.81
2019-06-27T06:45:04.198Z,1019.77
2019-06-27T06:45:44.766Z,1019.74
2019-06-27T06:46:25.461Z,1019.71
2019-06-27T06:47:06.046Z,1019.63
2019-06-27T06:47:46.674Z,1019.64
2019-06-27T06:48:27.286Z,1019.61
2019-06-27T06:49:07.868Z,1019.64
2019-06-27T06:49:48.473Z,1019.64
2019-06-27T06:50:29.067Z,1019.61
2019-06-27T06:51:09.681Z,1019.57
2019-06-27T06:51:50.336Z,1019.56
2019-06-27T06:52:30.950Z,1019.6
2019-06-27T06:53:11.514Z,1019.64
2019-06-27T06:53:52.178Z,1019.61
2019-06-27T06:54:32.811Z,1019.65
2019-06-27T06:55:13.469Z,1019.71
2019-06-27T06:55:54.254Z,1019.78
2019-06-27T06:56:34.932Z,1019.83
2019-06-27T06:57:15.553Z,1019.83
2019-06-27T06:57:56.231Z,1019.7
2019-06-27T06:58:36.868Z,1019.66
2019-06-27T06:59:17.472Z,1019.64
2019-06-27T06:59:58.124Z,1019.56
2019-06-27T07:00:38.779Z,1019.58
2019-06-27T07:01:19.394Z,1019.59
2019-06-27T07:02:00.023Z,1019.62
2019-06-27T07:02:40.611Z,1019.57
2019-06-27T07:03:21.240Z,1019.59
2019-06-27T07:04:01.880Z,1019.56
2019-06-27T07:04:42.488Z,1019.56
2019-06-27T07:05:23.169Z,1019.58
2019-06-27T07:06:03.860Z,1019.53
2019-06-27T07:06:44.492Z,1019.55
2019-06-27T07:07:25.095Z,1019.56
2019-06-27T07:08:05.723Z,1019.59
2019-06-27T07:08:46.344Z,1019.58
2019-06-27T07:09:27.084Z,1019.62
2019-06-27T07:10:07.705Z,1019.6
2019-06-27T07:10:48.426Z,1019.6
2019-06-27T07:11:29.071Z,1019.57
2019-06-27T07:12:09.811Z,1019.57
2019-06-27T07:12:50.472Z,1019.56
2019-06-27T07:13:31.105Z,1019.59
2019-06-27T07:14:11.727Z,1019.61
2019-06-27T07:14:52.313Z,1019.62
2019-06-27T07:15:32.890Z,1019.6
2019-06-27T07:16:13.473Z,1019.59
2019-06-27T07:16:54.066Z,1019.61
2019-06-27T07:17:34.767Z,1019.58
2019-06-27T07:18:15.290Z,1019.63
2019-06-27T07:18:55.902Z,1019.59
2019-06-27T07:19:36.480Z,1019.6
2019-06-27T07:20:17.123Z,1019.61
2019-06-27T07:20:57.710Z,1019.64
2019-06-27T07:21:38.338Z,1019.63
2019-06-27T07:24:52.808Z,1020.28
2019-06-27T07:25:33.349Z,1020.41
2019-06-27T07:26:13.921Z,1020.36
2019-06-27T07:26:54.486Z,1020.23
2019-06-27T07:27:35.064Z,1020.15
2019-06-27T07:28:15.640Z,1020.03
2019-06-27T07:28:56.238Z,1019.89
2019-06-27T07:29:36.801Z,1019.82
2019-06-27T07:30:17.401Z,1019.73
2019-06-27T07:30:57.972Z,1019.74
2019-06-27T07:31:38.537Z,1019.72
2019-06-27T07:32:19.086Z,1019.77
2019-06-27T07:32:59.676Z,1019.73
2019-06-27T07:33:40.270Z,1019.73
2019-06-27T07:34:20.957Z,1019.71
2019-06-27T07:35:01.551Z,1019.72
2019-06-27T07:35:42.146Z,1019.74
2019-06-27T07:36:22.748Z,1019.74
2019-06-27T07:37:03.356Z,1019.75
2019-06-27T07:37:43.931Z,1019.75
2019-06-27T07:38:24.524Z,1019.72
2019-06-27T07:39:05.131Z,1019.72
2019-06-27T07:39:45.742Z,1019.73
2019-06-27T07:40:26.325Z,1019.73
2019-06-27T07:41:06.931Z,1019.7
2019-06-27T07:41:47.586Z,1019.72
2019-06-27T07:42:28.170Z,1019.68
2019-06-27T07:43:08.779Z,1019.66
2019-06-27T07:43:49.376Z,1019.71
2019-06-27T07:44:29.973Z,1019.66
2019-06-27T07:45:10.572Z,1019.66
2019-06-27T07:45:51.203Z,1019.72
2019-06-27T07:46:31.787Z,1019.69
2019-06-27T07:47:12.364Z,1019.69
2019-06-27T07:47:52.982Z,1019.68
2019-06-27T07:48:33.680Z,1019.7
2019-06-27T07:49:14.310Z,1019.66
2019-06-27T07:49:54.921Z,1019.65
2019-06-27T07:50:35.539Z,1019.73
2019-06-27T07:51:16.160Z,1019.74
2019-06-27T07:51:56.794Z,1019.73
2019-06-27T07:52:37.368Z,1019.75
2019-06-27T07:53:17.988Z,1019.69
2019-06-27T07:53:58.597Z,1019.74
2019-06-27T07:54:39.178Z,1019.71
2019-06-27T07:55:19.821Z,1019.66
2019-06-27T07:56:00.443Z,1019.59
2019-06-27T07:56:41.068Z,1019.61
2019-06-27T07:57:21.645Z,1019.65
2019-06-27T07:58:02.236Z,1019.64
2019-06-27T07:58:42.869Z,1019.66
2019-06-27T07:59:23.490Z,1019.63
2019-06-27T08:00:04.087Z,1019.61
2019-06-27T08:00:44.760Z,1019.63
2019-06-27T08:01:34.777Z,1019.6
2019-06-27T08:02:05.931Z,1019.57
2019-06-27T08:02:46.547Z,1019.61
2019-06-27T08:03:27.116Z,1019.6
2019-06-27T08:04:07.754Z,1019.6
2019-06-27T08:04:48.318Z,1019.6
2019-06-27T08:05:28.924Z,1019.61
2019-06-27T08:06:09.508Z,1019.61
2019-06-27T08:06:50.137Z,1019.56
2019-06-27T08:07:30.825Z,1019.61
2019-06-27T08:08:11.605Z,1019.55
2019-06-27T08:08:52.511Z,1019.57
2019-06-27T08:09:33.134Z,1019.57
2019-06-27T08:10:13.706Z,1019.55
2019-06-27T08:10:54.332Z,1019.55
2019-06-27T08:11:34.918Z,1019.58
2019-06-27T08:12:15.509Z,1019.61
2019-06-27T08:12:56.118Z,1019.52
2019-06-27T08:13:36.739Z,1019.56
2019-06-27T08:14:17.365Z,1019.63
2019-06-27T08:14:57.995Z,1019.57
2019-06-27T08:15:38.602Z,1019.56
2019-06-27T08:16:19.219Z,1019.54
2019-06-27T08:16:59.795Z,1019.56
2019-06-27T08:17:40.404Z,1019.6
2019-06-27T08:18:21.079Z,1019.58
2019-06-27T08:19:01.667Z,1019.58
2019-06-27T08:19:42.377Z,1019.63
2019-06-27T08:20:22.952Z,1019.59
2019-06-27T08:21:03.527Z,1019.57